sensor_id;sensor_type;location;lat;lon;timestamp;P1;durP1;ratioP1;P2;durP2;ratioP2
52512;SDS011;38422;53.172;6.974;2023-04-03T00:01:11;2.13;;;0.50;;
52512;SDS011;38422;53.172;6.974;2023-04-03T00:03:37;2.35;;;0.63;;
52512;SDS011;38422;53.172;6.974;2023-04-03T00:06:02;1.95;;;0.60;;
52512;SDS011;38422;53.172;6.974;2023-04-03T00:08:28;1.60;;;0.60;;
52512;SDS011;38422;53.172;6.974;2023-04-03T00:10:57;1.30;;;0.47;;
52512;SDS011;38422;53.172;6.974;2023-04-03T00:13:23;2.83;;;0.75;;
52512;SDS011;38422;53.172;6.974;2023-04-03T00:15:50;2.88;;;0.70;;
52512;SDS011;38422;53.172;6.974;2023-04-03T00:18:16;1.65;;;0.75;;
52512;SDS011;38422;53.172;6.974;2023-04-03T00:20:42;2.33;;;0.60;;
52512;SDS011;38422;53.172;6.974;2023-04-03T00:23:09;2.30;;;0.80;;
52512;SDS011;38422;53.172;6.974;2023-04-03T00:25:34;2.72;;;0.70;;
52512;SDS011;38422;53.172;6.974;2023-04-03T00:28:01;1.55;;;0.60;;
52512;SDS011;38422;53.172;6.974;2023-04-03T00:30:27;2.95;;;0.80;;
52512;SDS011;38422;53.172;6.974;2023-04-03T00:32:53;2.58;;;0.70;;
52512;SDS011;38422;53.172;6.974;2023-04-03T00:35:19;3.33;;;0.70;;
52512;SDS011;38422;53.172;6.974;2023-04-03T00:37:46;3.35;;;0.70;;
52512;SDS011;38422;53.172;6.974;2023-04-03T00:40:13;3.65;;;0.95;;
52512;SDS011;38422;53.172;6.974;2023-04-03T00:47:50;2.55;;;0.60;;
52512;SDS011;38422;53.172;6.974;2023-04-03T00:50:16;3.92;;;0.70;;
52512;SDS011;38422;53.172;6.974;2023-04-03T00:52:45;3.25;;;0.63;;
52512;SDS011;38422;53.172;6.974;2023-04-03T00:55:13;3.60;;;0.85;;
52512;SDS011;38422;53.172;6.974;2023-04-03T00:57:40;3.70;;;0.70;;
52512;SDS011;38422;53.172;6.974;2023-04-03T01:00:09;2.28;;;0.70;;
52512;SDS011;38422;53.172;6.974;2023-04-03T01:02:37;2.08;;;0.75;;
52512;SDS011;38422;53.172;6.974;2023-04-03T01:05:06;3.65;;;1.00;;
52512;SDS011;38422;53.172;6.974;2023-04-03T01:07:32;4.50;;;1.05;;
52512;SDS011;38422;53.172;6.974;2023-04-03T01:10:01;3.08;;;0.70;;
52512;SDS011;38422;53.172;6.974;2023-04-03T01:15:10;2.72;;;0.85;;
52512;SDS011;38422;53.172;6.974;2023-04-03T01:20:22;3.78;;;0.80;;
52512;SDS011;38422;53.172;6.974;2023-04-03T01:28:19;4.25;;;1.00;;
52512;SDS011;38422;53.172;6.974;2023-04-03T01:33:34;5.32;;;1.17;;
52512;SDS011;38422;53.172;6.974;2023-04-03T01:36:00;3.63;;;0.88;;
52512;SDS011;38422;53.172;6.974;2023-04-03T01:38:26;4.18;;;0.90;;
52512;SDS011;38422;53.172;6.974;2023-04-03T01:40:52;4.88;;;1.00;;
52512;SDS011;38422;53.172;6.974;2023-04-03T01:43:18;3.15;;;0.90;;
52512;SDS011;38422;53.172;6.974;2023-04-03T01:45:44;3.55;;;0.85;;
52512;SDS011;38422;53.172;6.974;2023-04-03T01:48:11;2.10;;;0.90;;
52512;SDS011;38422;53.172;6.974;2023-04-03T01:50:38;6.95;;;1.45;;
52512;SDS011;38422;53.172;6.974;2023-04-03T01:53:04;4.10;;;0.85;;
52512;SDS011;38422;53.172;6.974;2023-04-03T01:55:30;3.42;;;0.93;;
52512;SDS011;38422;53.172;6.974;2023-04-03T01:57:55;4.60;;;1.10;;
52512;SDS011;38422;53.172;6.974;2023-04-03T02:00:21;2.28;;;0.90;;
52512;SDS011;38422;53.172;6.974;2023-04-03T02:02:47;5.82;;;1.23;;
52512;SDS011;38422;53.172;6.974;2023-04-03T02:05:12;2.65;;;1.10;;
52512;SDS011;38422;53.172;6.974;2023-04-03T02:07:38;3.70;;;1.00;;
52512;SDS011;38422;53.172;6.974;2023-04-03T02:10:04;5.50;;;1.23;;
52512;SDS011;38422;53.172;6.974;2023-04-03T02:12:30;4.05;;;0.90;;
52512;SDS011;38422;53.172;6.974;2023-04-03T02:14:56;3.70;;;1.13;;
52512;SDS011;38422;53.172;6.974;2023-04-03T02:17:22;3.97;;;1.15;;
52512;SDS011;38422;53.172;6.974;2023-04-03T02:19:47;2.60;;;1.10;;
52512;SDS011;38422;53.172;6.974;2023-04-03T02:22:13;4.38;;;1.20;;
52512;SDS011;38422;53.172;6.974;2023-04-03T02:24:39;4.68;;;1.20;;
52512;SDS011;38422;53.172;6.974;2023-04-03T02:27:08;5.32;;;1.35;;
52512;SDS011;38422;53.172;6.974;2023-04-03T02:29:34;4.22;;;1.27;;
52512;SDS011;38422;53.172;6.974;2023-04-03T02:31:59;5.57;;;1.50;;
52512;SDS011;38422;53.172;6.974;2023-04-03T02:34:25;6.07;;;1.50;;
52512;SDS011;38422;53.172;6.974;2023-04-03T02:36:51;3.50;;;1.00;;
52512;SDS011;38422;53.172;6.974;2023-04-03T02:39:16;4.63;;;1.13;;
52512;SDS011;38422;53.172;6.974;2023-04-03T02:41:42;6.78;;;1.45;;
52512;SDS011;38422;53.172;6.974;2023-04-03T02:44:08;4.55;;;1.27;;
52512;SDS011;38422;53.172;6.974;2023-04-03T02:46:35;5.38;;;1.30;;
52512;SDS011;38422;53.172;6.974;2023-04-03T02:49:00;3.92;;;1.15;;
52512;SDS011;38422;53.172;6.974;2023-04-03T02:51:26;4.00;;;1.27;;
52512;SDS011;38422;53.172;6.974;2023-04-03T02:53:52;4.00;;;1.10;;
52512;SDS011;38422;53.172;6.974;2023-04-03T02:56:18;4.82;;;1.40;;
52512;SDS011;38422;53.172;6.974;2023-04-03T02:58:45;6.35;;;1.52;;
52512;SDS011;38422;53.172;6.974;2023-04-03T03:01:11;5.05;;;1.20;;
52512;SDS011;38422;53.172;6.974;2023-04-03T03:03:37;6.95;;;1.58;;
52512;SDS011;38422;53.172;6.974;2023-04-03T03:06:11;3.70;;;1.27;;
52512;SDS011;38422;53.172;6.974;2023-04-03T03:08:39;4.07;;;1.25;;
52512;SDS011;38422;53.172;6.974;2023-04-03T03:11:05;2.73;;;1.00;;
52512;SDS011;38422;53.172;6.974;2023-04-03T03:13:31;5.90;;;1.13;;
52512;SDS011;38422;53.172;6.974;2023-04-03T03:15:57;2.92;;;1.10;;
52512;SDS011;38422;53.172;6.974;2023-04-03T03:18:23;4.85;;;1.10;;
52512;SDS011;38422;53.172;6.974;2023-04-03T03:20:52;3.88;;;1.23;;
52512;SDS011;38422;53.172;6.974;2023-04-03T03:23:18;5.30;;;1.40;;
52512;SDS011;38422;53.172;6.974;2023-04-03T03:25:45;4.28;;;1.20;;
52512;SDS011;38422;53.172;6.974;2023-04-03T03:28:10;4.47;;;1.15;;
52512;SDS011;38422;53.172;6.974;2023-04-03T03:30:36;6.00;;;1.55;;
52512;SDS011;38422;53.172;6.974;2023-04-03T03:33:02;5.47;;;1.10;;
52512;SDS011;38422;53.172;6.974;2023-04-03T03:35:29;4.63;;;1.33;;
52512;SDS011;38422;53.172;6.974;2023-04-03T03:37:54;4.93;;;1.20;;
52512;SDS011;38422;53.172;6.974;2023-04-03T03:40:20;3.40;;;1.20;;
52512;SDS011;38422;53.172;6.974;2023-04-03T03:42:46;4.18;;;1.17;;
52512;SDS011;38422;53.172;6.974;2023-04-03T03:45:11;3.67;;;1.13;;
52512;SDS011;38422;53.172;6.974;2023-04-03T03:47:37;8.93;;;1.45;;
52512;SDS011;38422;53.172;6.974;2023-04-03T03:50:03;5.18;;;1.48;;
52512;SDS011;38422;53.172;6.974;2023-04-03T03:52:29;4.38;;;1.40;;
52512;SDS011;38422;53.172;6.974;2023-04-03T03:54:56;5.63;;;1.38;;
52512;SDS011;38422;53.172;6.974;2023-04-03T03:57:21;3.90;;;1.48;;
52512;SDS011;38422;53.172;6.974;2023-04-03T03:59:47;4.05;;;1.40;;
52512;SDS011;38422;53.172;6.974;2023-04-03T04:02:14;4.22;;;1.23;;
52512;SDS011;38422;53.172;6.974;2023-04-03T04:04:40;4.97;;;1.65;;
52512;SDS011;38422;53.172;6.974;2023-04-03T04:07:05;3.97;;;1.40;;
52512;SDS011;38422;53.172;6.974;2023-04-03T04:09:31;5.95;;;1.27;;
52512;SDS011;38422;53.172;6.974;2023-04-03T04:11:57;4.70;;;1.40;;
52512;SDS011;38422;53.172;6.974;2023-04-03T04:14:22;4.18;;;1.67;;
52512;SDS011;38422;53.172;6.974;2023-04-03T04:16:48;4.75;;;1.42;;
52512;SDS011;38422;53.172;6.974;2023-04-03T04:19:14;5.53;;;1.83;;
52512;SDS011;38422;53.172;6.974;2023-04-03T04:21:40;4.97;;;1.60;;
52512;SDS011;38422;53.172;6.974;2023-04-03T04:24:06;6.65;;;1.65;;
52512;SDS011;38422;53.172;6.974;2023-04-03T04:26:33;5.53;;;1.65;;
52512;SDS011;38422;53.172;6.974;2023-04-03T04:28:58;4.45;;;1.40;;
52512;SDS011;38422;53.172;6.974;2023-04-03T04:31:24;5.18;;;1.30;;
52512;SDS011;38422;53.172;6.974;2023-04-03T04:33:50;6.57;;;1.52;;
52512;SDS011;38422;53.172;6.974;2023-04-03T04:36:16;4.13;;;1.30;;
52512;SDS011;38422;53.172;6.974;2023-04-03T04:38:42;4.47;;;1.38;;
52512;SDS011;38422;53.172;6.974;2023-04-03T04:41:08;3.88;;;1.50;;
52512;SDS011;38422;53.172;6.974;2023-04-03T04:43:33;5.28;;;1.60;;
52512;SDS011;38422;53.172;6.974;2023-04-03T04:46:03;5.75;;;1.70;;
52512;SDS011;38422;53.172;6.974;2023-04-03T04:48:30;6.18;;;1.50;;
52512;SDS011;38422;53.172;6.974;2023-04-03T04:50:56;5.75;;;1.50;;
52512;SDS011;38422;53.172;6.974;2023-04-03T04:53:22;3.97;;;1.33;;
52512;SDS011;38422;53.172;6.974;2023-04-03T04:55:48;4.97;;;1.27;;
52512;SDS011;38422;53.172;6.974;2023-04-03T04:58:13;6.20;;;1.60;;
52512;SDS011;38422;53.172;6.974;2023-04-03T05:00:39;4.70;;;1.52;;
52512;SDS011;38422;53.172;6.974;2023-04-03T05:03:05;5.88;;;1.60;;
52512;SDS011;38422;53.172;6.974;2023-04-03T05:05:31;6.10;;;1.65;;
52512;SDS011;38422;53.172;6.974;2023-04-03T05:07:57;5.15;;;1.60;;
52512;SDS011;38422;53.172;6.974;2023-04-03T05:10:22;4.07;;;1.50;;
52512;SDS011;38422;53.172;6.974;2023-04-03T05:12:48;5.72;;;1.60;;
52512;SDS011;38422;53.172;6.974;2023-04-03T05:15:14;6.15;;;1.98;;
52512;SDS011;38422;53.172;6.974;2023-04-03T05:17:40;5.65;;;1.80;;
52512;SDS011;38422;53.172;6.974;2023-04-03T05:20:06;3.58;;;1.48;;
52512;SDS011;38422;53.172;6.974;2023-04-03T05:22:32;5.35;;;1.50;;
52512;SDS011;38422;53.172;6.974;2023-04-03T05:24:58;4.35;;;1.67;;
52512;SDS011;38422;53.172;6.974;2023-04-03T05:27:23;5.88;;;1.67;;
52512;SDS011;38422;53.172;6.974;2023-04-03T05:29:49;6.53;;;1.73;;
52512;SDS011;38422;53.172;6.974;2023-04-03T05:32:15;5.65;;;1.70;;
52512;SDS011;38422;53.172;6.974;2023-04-03T05:34:41;3.88;;;1.45;;
52512;SDS011;38422;53.172;6.974;2023-04-03T05:37:07;5.70;;;1.65;;
52512;SDS011;38422;53.172;6.974;2023-04-03T05:39:36;7.78;;;1.70;;
52512;SDS011;38422;53.172;6.974;2023-04-03T05:42:03;7.25;;;1.90;;
52512;SDS011;38422;53.172;6.974;2023-04-03T05:44:29;5.63;;;1.80;;
52512;SDS011;38422;53.172;6.974;2023-04-03T05:46:55;5.47;;;1.80;;
52512;SDS011;38422;53.172;6.974;2023-04-03T05:49:20;5.50;;;2.03;;
52512;SDS011;38422;53.172;6.974;2023-04-03T05:51:47;6.90;;;2.03;;
52512;SDS011;38422;53.172;6.974;2023-04-03T05:54:18;6.47;;;1.73;;
52512;SDS011;38422;53.172;6.974;2023-04-03T05:56:52;6.30;;;2.17;;
52512;SDS011;38422;53.172;6.974;2023-04-03T05:59:18;6.38;;;2.08;;
52512;SDS011;38422;53.172;6.974;2023-04-03T06:01:45;6.47;;;1.60;;
52512;SDS011;38422;53.172;6.974;2023-04-03T06:04:11;4.68;;;1.90;;
52512;SDS011;38422;53.172;6.974;2023-04-03T06:06:51;6.13;;;2.10;;
52512;SDS011;38422;53.172;6.974;2023-04-03T06:09:19;4.53;;;1.65;;
52512;SDS011;38422;53.172;6.974;2023-04-03T06:11:46;7.85;;;2.00;;
52512;SDS011;38422;53.172;6.974;2023-04-03T06:14:12;5.72;;;1.80;;
52512;SDS011;38422;53.172;6.974;2023-04-03T06:24:24;6.47;;;1.92;;
52512;SDS011;38422;53.172;6.974;2023-04-03T06:26:50;8.20;;;1.90;;
52512;SDS011;38422;53.172;6.974;2023-04-03T06:29:17;4.70;;;2.05;;
52512;SDS011;38422;53.172;6.974;2023-04-03T06:31:44;3.90;;;1.75;;
52512;SDS011;38422;53.172;6.974;2023-04-03T06:34:11;7.15;;;2.30;;
52512;SDS011;38422;53.172;6.974;2023-04-03T06:36:37;7.45;;;1.90;;
52512;SDS011;38422;53.172;6.974;2023-04-03T06:39:03;4.75;;;1.80;;
52512;SDS011;38422;53.172;6.974;2023-04-03T06:41:29;5.78;;;2.03;;
52512;SDS011;38422;53.172;6.974;2023-04-03T06:43:55;7.82;;;2.17;;
52512;SDS011;38422;53.172;6.974;2023-04-03T06:46:23;8.13;;;2.17;;
52512;SDS011;38422;53.172;6.974;2023-04-03T06:48:50;7.18;;;1.92;;
52512;SDS011;38422;53.172;6.974;2023-04-03T06:53:53;5.22;;;1.77;;
52512;SDS011;38422;53.172;6.974;2023-04-03T06:56:21;7.90;;;2.38;;
52512;SDS011;38422;53.172;6.974;2023-04-03T06:58:48;4.95;;;1.73;;
52512;SDS011;38422;53.172;6.974;2023-04-03T07:01:15;5.18;;;1.80;;
52512;SDS011;38422;53.172;6.974;2023-04-03T07:03:42;7.00;;;2.00;;
52512;SDS011;38422;53.172;6.974;2023-04-03T07:06:12;4.88;;;1.80;;
52512;SDS011;38422;53.172;6.974;2023-04-03T07:08:39;6.18;;;1.92;;
52512;SDS011;38422;53.172;6.974;2023-04-03T07:11:05;5.45;;;1.92;;
52512;SDS011;38422;53.172;6.974;2023-04-03T07:13:31;5.97;;;1.83;;
52512;SDS011;38422;53.172;6.974;2023-04-03T07:15:57;5.18;;;2.10;;
52512;SDS011;38422;53.172;6.974;2023-04-03T07:18:23;5.60;;;1.98;;
52512;SDS011;38422;53.172;6.974;2023-04-03T07:20:49;5.10;;;1.88;;
52512;SDS011;38422;53.172;6.974;2023-04-03T07:23:15;7.00;;;1.73;;
52512;SDS011;38422;53.172;6.974;2023-04-03T07:25:44;6.22;;;2.00;;
52512;SDS011;38422;53.172;6.974;2023-04-03T07:28:12;7.43;;;1.95;;
52512;SDS011;38422;53.172;6.974;2023-04-03T07:30:51;7.50;;;2.00;;
52512;SDS011;38422;53.172;6.974;2023-04-03T07:33:20;5.32;;;1.90;;
52512;SDS011;38422;53.172;6.974;2023-04-03T07:35:47;6.40;;;1.90;;
52512;SDS011;38422;53.172;6.974;2023-04-03T07:38:13;5.47;;;1.83;;
52512;SDS011;38422;53.172;6.974;2023-04-03T07:40:39;6.75;;;1.70;;
52512;SDS011;38422;53.172;6.974;2023-04-03T07:43:05;6.93;;;1.92;;
52512;SDS011;38422;53.172;6.974;2023-04-03T07:45:32;5.23;;;1.80;;
52512;SDS011;38422;53.172;6.974;2023-04-03T07:48:00;6.32;;;1.75;;
52512;SDS011;38422;53.172;6.974;2023-04-03T07:50:25;5.65;;;1.98;;
52512;SDS011;38422;53.172;6.974;2023-04-03T07:52:52;7.63;;;1.77;;
52512;SDS011;38422;53.172;6.974;2023-04-03T07:55:19;5.05;;;1.60;;
52512;SDS011;38422;53.172;6.974;2023-04-03T07:57:45;5.78;;;1.70;;
52512;SDS011;38422;53.172;6.974;2023-04-03T08:00:11;5.78;;;1.27;;
52512;SDS011;38422;53.172;6.974;2023-04-03T08:02:37;5.63;;;1.60;;
52512;SDS011;38422;53.172;6.974;2023-04-03T08:05:03;5.25;;;1.40;;
52512;SDS011;38422;53.172;6.974;2023-04-03T08:07:29;6.28;;;1.60;;
52512;SDS011;38422;53.172;6.974;2023-04-03T08:09:55;6.43;;;1.58;;
52512;SDS011;38422;53.172;6.974;2023-04-03T08:12:22;4.82;;;1.48;;
52512;SDS011;38422;53.172;6.974;2023-04-03T08:14:47;4.90;;;1.40;;
52512;SDS011;38422;53.172;6.974;2023-04-03T08:17:13;6.63;;;2.03;;
52512;SDS011;38422;53.172;6.974;2023-04-03T08:19:39;5.07;;;1.40;;
52512;SDS011;38422;53.172;6.974;2023-04-03T08:22:05;4.30;;;1.50;;
52512;SDS011;38422;53.172;6.974;2023-04-03T08:24:33;5.30;;;1.40;;
52512;SDS011;38422;53.172;6.974;2023-04-03T08:26:59;3.78;;;1.40;;
52512;SDS011;38422;53.172;6.974;2023-04-03T08:29:25;4.18;;;1.50;;
52512;SDS011;38422;53.172;6.974;2023-04-03T08:31:51;5.47;;;1.40;;
52512;SDS011;38422;53.172;6.974;2023-04-03T08:34:17;4.80;;;1.30;;
52512;SDS011;38422;53.172;6.974;2023-04-03T08:36:44;4.10;;;1.45;;
52512;SDS011;38422;53.172;6.974;2023-04-03T08:39:10;5.80;;;1.50;;
52512;SDS011;38422;53.172;6.974;2023-04-03T08:41:43;3.90;;;1.50;;
52512;SDS011;38422;53.172;6.974;2023-04-03T08:54:55;2.65;;;0.95;;
52512;SDS011;38422;53.172;6.974;2023-04-03T08:57:26;4.55;;;1.00;;
52512;SDS011;38422;53.172;6.974;2023-04-03T09:00:22;2.92;;;1.08;;
52512;SDS011;38422;53.172;6.974;2023-04-03T09:02:53;3.53;;;1.00;;
52512;SDS011;38422;53.172;6.974;2023-04-03T09:08:26;3.13;;;0.85;;
52512;SDS011;38422;53.172;6.974;2023-04-03T09:11:21;2.85;;;0.80;;
52512;SDS011;38422;53.172;6.974;2023-04-03T09:14:00;2.08;;;0.73;;
52512;SDS011;38422;53.172;6.974;2023-04-03T09:22:19;3.60;;;0.90;;
52512;SDS011;38422;53.172;6.974;2023-04-03T09:24:57;3.17;;;0.90;;
52512;SDS011;38422;53.172;6.974;2023-04-03T09:27:31;4.07;;;0.90;;
52512;SDS011;38422;53.172;6.974;2023-04-03T09:29:56;2.25;;;0.80;;
52512;SDS011;38422;53.172;6.974;2023-04-03T09:32:35;3.60;;;0.90;;
52512;SDS011;38422;53.172;6.974;2023-04-03T09:37:46;3.20;;;0.90;;
52512;SDS011;38422;53.172;6.974;2023-04-03T09:40:33;3.30;;;0.70;;
52512;SDS011;38422;53.172;6.974;2023-04-03T09:45:46;4.93;;;0.88;;
52512;SDS011;38422;53.172;6.974;2023-04-03T09:53:39;2.40;;;0.68;;
52512;SDS011;38422;53.172;6.974;2023-04-03T09:58:43;4.13;;;0.93;;
52512;SDS011;38422;53.172;6.974;2023-04-03T10:06:39;1.48;;;0.50;;
52512;SDS011;38422;53.172;6.974;2023-04-03T10:12:05;2.08;;;0.60;;
52512;SDS011;38422;53.172;6.974;2023-04-03T10:14:39;3.50;;;0.60;;
52512;SDS011;38422;53.172;6.974;2023-04-03T10:19:57;2.13;;;0.50;;
52512;SDS011;38422;53.172;6.974;2023-04-03T10:28:09;3.05;;;0.88;;
52512;SDS011;38422;53.172;6.974;2023-04-03T10:39:21;1.70;;;0.38;;
52512;SDS011;38422;53.172;6.974;2023-04-03T10:55:48;2.10;;;0.50;;
52512;SDS011;38422;53.172;6.974;2023-04-03T10:58:25;2.92;;;0.63;;
52512;SDS011;38422;53.172;6.974;2023-04-03T11:00:56;2.20;;;0.57;;
52512;SDS011;38422;53.172;6.974;2023-04-03T11:03:45;2.20;;;0.50;;
52512;SDS011;38422;53.172;6.974;2023-04-03T11:06:15;2.63;;;0.60;;
52512;SDS011;38422;53.172;6.974;2023-04-03T11:09:02;1.42;;;0.60;;
52512;SDS011;38422;53.172;6.974;2023-04-03T11:11:34;1.73;;;0.60;;
52512;SDS011;38422;53.172;6.974;2023-04-03T11:14:09;1.75;;;0.50;;
52512;SDS011;38422;53.172;6.974;2023-04-03T11:16:48;2.17;;;0.60;;
52512;SDS011;38422;53.172;6.974;2023-04-03T11:22:16;2.20;;;0.73;;
52512;SDS011;38422;53.172;6.974;2023-04-03T11:35:44;1.20;;;0.60;;
52512;SDS011;38422;53.172;6.974;2023-04-03T11:38:15;1.90;;;0.60;;
52512;SDS011;38422;53.172;6.974;2023-04-03T11:40:52;1.48;;;0.50;;
52512;SDS011;38422;53.172;6.974;2023-04-03T11:50:53;1.33;;;0.47;;
52512;SDS011;38422;53.172;6.974;2023-04-03T11:53:33;1.75;;;0.60;;
52512;SDS011;38422;53.172;6.974;2023-04-03T11:56:27;1.65;;;0.50;;
52512;SDS011;38422;53.172;6.974;2023-04-03T12:01:47;2.33;;;0.60;;
52512;SDS011;38422;53.172;6.974;2023-04-03T12:04:24;1.35;;;0.50;;
52512;SDS011;38422;53.172;6.974;2023-04-03T12:07:02;1.88;;;0.60;;
52512;SDS011;38422;53.172;6.974;2023-04-03T12:12:24;1.02;;;0.60;;
52512;SDS011;38422;53.172;6.974;2023-04-03T12:14:59;2.53;;;0.70;;
52512;SDS011;38422;53.172;6.974;2023-04-03T12:17:47;3.13;;;0.88;;
52512;SDS011;38422;53.172;6.974;2023-04-03T12:20:45;2.25;;;0.60;;
52512;SDS011;38422;53.172;6.974;2023-04-03T12:28:44;2.15;;;0.60;;
52512;SDS011;38422;53.172;6.974;2023-04-03T12:31:11;3.03;;;0.60;;
52512;SDS011;38422;53.172;6.974;2023-04-03T12:33:57;1.25;;;0.45;;
52512;SDS011;38422;53.172;6.974;2023-04-03T12:39:41;1.35;;;0.55;;
52512;SDS011;38422;53.172;6.974;2023-04-03T12:47:42;2.45;;;0.60;;
52512;SDS011;38422;53.172;6.974;2023-04-03T12:53:06;2.20;;;0.60;;
52512;SDS011;38422;53.172;6.974;2023-04-03T12:55:38;1.02;;;0.47;;
52512;SDS011;38422;53.172;6.974;2023-04-03T12:58:14;1.70;;;0.60;;
52512;SDS011;38422;53.172;6.974;2023-04-03T13:01:00;2.33;;;0.50;;
52512;SDS011;38422;53.172;6.974;2023-04-03T13:03:34;1.75;;;0.47;;
52512;SDS011;38422;53.172;6.974;2023-04-03T13:06:04;2.15;;;0.60;;
52512;SDS011;38422;53.172;6.974;2023-04-03T13:08:30;2.25;;;0.52;;
52512;SDS011;38422;53.172;6.974;2023-04-03T13:11:08;1.55;;;0.52;;
52512;SDS011;38422;53.172;6.974;2023-04-03T13:13:37;1.50;;;0.50;;
52512;SDS011;38422;53.172;6.974;2023-04-03T13:16:10;0.95;;;0.43;;
52512;SDS011;38422;53.172;6.974;2023-04-03T13:18:37;1.35;;;0.60;;
52512;SDS011;38422;53.172;6.974;2023-04-03T13:21:04;1.75;;;0.60;;
52512;SDS011;38422;53.172;6.974;2023-04-03T13:23:43;1.70;;;0.65;;
52512;SDS011;38422;53.172;6.974;2023-04-03T13:26:11;0.73;;;0.40;;
52512;SDS011;38422;53.172;6.974;2023-04-03T13:28:41;1.75;;;0.52;;
52512;SDS011;38422;53.172;6.974;2023-04-03T13:31:21;1.92;;;0.60;;
52512;SDS011;38422;53.172;6.974;2023-04-03T13:34:02;1.08;;;0.40;;
52512;SDS011;38422;53.172;6.974;2023-04-03T13:39:27;2.35;;;0.60;;
52512;SDS011;38422;53.172;6.974;2023-04-03T13:41:56;2.45;;;0.60;;
52512;SDS011;38422;53.172;6.974;2023-04-03T13:44:36;1.52;;;0.52;;
52512;SDS011;38422;53.172;6.974;2023-04-03T13:52:20;1.95;;;0.50;;
52512;SDS011;38422;53.172;6.974;2023-04-03T13:54:56;1.52;;;0.60;;
52512;SDS011;38422;53.172;6.974;2023-04-03T13:57:25;1.48;;;0.60;;
52512;SDS011;38422;53.172;6.974;2023-04-03T13:59:51;2.03;;;0.50;;
52512;SDS011;38422;53.172;6.974;2023-04-03T14:02:21;1.42;;;0.40;;
52512;SDS011;38422;53.172;6.974;2023-04-03T14:04:54;1.55;;;0.55;;
52512;SDS011;38422;53.172;6.974;2023-04-03T14:07:25;1.23;;;0.50;;
52512;SDS011;38422;53.172;6.974;2023-04-03T14:09:51;0.98;;;0.40;;
52512;SDS011;38422;53.172;6.974;2023-04-03T14:12:26;1.27;;;0.40;;
52512;SDS011;38422;53.172;6.974;2023-04-03T14:14:56;2.10;;;0.40;;
52512;SDS011;38422;53.172;6.974;2023-04-03T14:17:23;0.93;;;0.40;;
52512;SDS011;38422;53.172;6.974;2023-04-03T14:19:50;1.42;;;0.43;;
52512;SDS011;38422;53.172;6.974;2023-04-03T14:22:19;1.33;;;0.50;;
52512;SDS011;38422;53.172;6.974;2023-04-03T14:24:47;2.17;;;0.70;;
52512;SDS011;38422;53.172;6.974;2023-04-03T14:27:19;1.77;;;0.60;;
52512;SDS011;38422;53.172;6.974;2023-04-03T14:29:48;2.10;;;0.73;;
52512;SDS011;38422;53.172;6.974;2023-04-03T14:32:16;2.40;;;0.60;;
52512;SDS011;38422;53.172;6.974;2023-04-03T14:34:46;1.95;;;0.82;;
52512;SDS011;38422;53.172;6.974;2023-04-03T14:37:14;1.48;;;0.60;;
52512;SDS011;38422;53.172;6.974;2023-04-03T14:39:43;1.77;;;0.60;;
52512;SDS011;38422;53.172;6.974;2023-04-03T14:42:14;2.38;;;0.75;;
52512;SDS011;38422;53.172;6.974;2023-04-03T14:44:42;4.75;;;0.90;;
52512;SDS011;38422;53.172;6.974;2023-04-03T14:47:10;4.00;;;0.77;;
52512;SDS011;38422;53.172;6.974;2023-04-03T14:49:40;2.33;;;0.93;;
52512;SDS011;38422;53.172;6.974;2023-04-03T14:52:09;1.75;;;0.52;;
52512;SDS011;38422;53.172;6.974;2023-04-03T14:54:49;2.65;;;0.50;;
52512;SDS011;38422;53.172;6.974;2023-04-03T14:57:16;1.98;;;0.63;;
52512;SDS011;38422;53.172;6.974;2023-04-03T14:59:42;3.13;;;0.60;;
52512;SDS011;38422;53.172;6.974;2023-04-03T15:02:26;0.90;;;0.40;;
52512;SDS011;38422;53.172;6.974;2023-04-03T15:04:52;1.92;;;0.70;;
52512;SDS011;38422;53.172;6.974;2023-04-03T15:07:19;2.30;;;0.60;;
52512;SDS011;38422;53.172;6.974;2023-04-03T15:09:46;2.20;;;0.50;;
52512;SDS011;38422;53.172;6.974;2023-04-03T15:12:11;2.03;;;0.80;;
52512;SDS011;38422;53.172;6.974;2023-04-03T15:14:38;1.95;;;0.47;;
52512;SDS011;38422;53.172;6.974;2023-04-03T15:17:04;2.05;;;0.60;;
52512;SDS011;38422;53.172;6.974;2023-04-03T15:19:35;1.48;;;0.45;;
52512;SDS011;38422;53.172;6.974;2023-04-03T15:22:03;1.48;;;0.50;;
52512;SDS011;38422;53.172;6.974;2023-04-03T15:24:28;1.00;;;0.20;;
52512;SDS011;38422;53.172;6.974;2023-04-03T15:26:54;1.42;;;0.50;;
52512;SDS011;38422;53.172;6.974;2023-04-03T15:29:20;1.50;;;0.50;;
52512;SDS011;38422;53.172;6.974;2023-04-03T15:31:46;1.77;;;0.47;;
52512;SDS011;38422;53.172;6.974;2023-04-03T15:34:11;1.65;;;0.50;;
52512;SDS011;38422;53.172;6.974;2023-04-03T15:36:37;0.85;;;0.40;;
52512;SDS011;38422;53.172;6.974;2023-04-03T15:39:06;1.25;;;0.52;;
52512;SDS011;38422;53.172;6.974;2023-04-03T15:41:31;1.45;;;0.47;;
52512;SDS011;38422;53.172;6.974;2023-04-03T15:43:57;1.42;;;0.60;;
52512;SDS011;38422;53.172;6.974;2023-04-03T15:46:23;1.13;;;0.60;;
52512;SDS011;38422;53.172;6.974;2023-04-03T15:48:49;2.05;;;0.60;;
52512;SDS011;38422;53.172;6.974;2023-04-03T15:51:14;2.15;;;0.60;;
52512;SDS011;38422;53.172;6.974;2023-04-03T15:53:40;2.15;;;0.50;;
52512;SDS011;38422;53.172;6.974;2023-04-03T15:56:07;1.48;;;0.60;;
52512;SDS011;38422;53.172;6.974;2023-04-03T15:58:34;1.85;;;0.60;;
52512;SDS011;38422;53.172;6.974;2023-04-03T16:01:00;1.27;;;0.50;;
52512;SDS011;38422;53.172;6.974;2023-04-03T16:03:27;1.20;;;0.50;;
52512;SDS011;38422;53.172;6.974;2023-04-03T16:05:53;1.90;;;0.63;;
52512;SDS011;38422;53.172;6.974;2023-04-03T16:08:19;1.83;;;0.50;;
52512;SDS011;38422;53.172;6.974;2023-04-03T16:10:45;1.77;;;0.60;;
52512;SDS011;38422;53.172;6.974;2023-04-03T16:13:12;2.07;;;0.70;;
52512;SDS011;38422;53.172;6.974;2023-04-03T16:15:40;1.52;;;0.50;;
52512;SDS011;38422;53.172;6.974;2023-04-03T16:18:06;1.70;;;0.57;;
52512;SDS011;38422;53.172;6.974;2023-04-03T16:20:33;1.25;;;0.60;;
52512;SDS011;38422;53.172;6.974;2023-04-03T16:23:00;2.08;;;0.82;;
52512;SDS011;38422;53.172;6.974;2023-04-03T16:25:26;1.30;;;0.50;;
52512;SDS011;38422;53.172;6.974;2023-04-03T16:27:55;2.05;;;0.55;;
52512;SDS011;38422;53.172;6.974;2023-04-03T16:30:20;1.45;;;0.60;;
52512;SDS011;38422;53.172;6.974;2023-04-03T16:32:46;0.93;;;0.52;;
52512;SDS011;38422;53.172;6.974;2023-04-03T16:35:12;1.17;;;0.60;;
52512;SDS011;38422;53.172;6.974;2023-04-03T16:37:38;1.05;;;0.50;;
52512;SDS011;38422;53.172;6.974;2023-04-03T16:40:05;2.38;;;0.80;;
52512;SDS011;38422;53.172;6.974;2023-04-03T16:42:31;1.80;;;0.70;;
52512;SDS011;38422;53.172;6.974;2023-04-03T16:44:57;2.53;;;0.60;;
52512;SDS011;38422;53.172;6.974;2023-04-03T16:47:25;1.95;;;0.50;;
52512;SDS011;38422;53.172;6.974;2023-04-03T16:49:51;1.48;;;0.63;;
52512;SDS011;38422;53.172;6.974;2023-04-03T16:52:17;1.33;;;0.43;;
52512;SDS011;38422;53.172;6.974;2023-04-03T16:54:42;1.73;;;0.60;;
52512;SDS011;38422;53.172;6.974;2023-04-03T16:57:08;1.80;;;0.55;;
52512;SDS011;38422;53.172;6.974;2023-04-03T16:59:34;2.10;;;0.75;;
52512;SDS011;38422;53.172;6.974;2023-04-03T17:02:00;0.93;;;0.50;;
52512;SDS011;38422;53.172;6.974;2023-04-03T17:04:26;1.65;;;0.60;;
52512;SDS011;38422;53.172;6.974;2023-04-03T17:06:51;1.33;;;0.50;;
52512;SDS011;38422;53.172;6.974;2023-04-03T17:09:17;0.98;;;0.40;;
52512;SDS011;38422;53.172;6.974;2023-04-03T17:11:43;1.13;;;0.50;;
52512;SDS011;38422;53.172;6.974;2023-04-03T17:14:08;1.02;;;0.40;;
52512;SDS011;38422;53.172;6.974;2023-04-03T17:16:35;0.82;;;0.40;;
52512;SDS011;38422;53.172;6.974;2023-04-03T17:19:02;1.63;;;0.50;;
52512;SDS011;38422;53.172;6.974;2023-04-03T17:21:28;1.25;;;0.63;;
52512;SDS011;38422;53.172;6.974;2023-04-03T17:23:59;2.10;;;1.00;;
52512;SDS011;38422;53.172;6.974;2023-04-03T17:26:28;2.47;;;0.90;;
52512;SDS011;38422;53.172;6.974;2023-04-03T17:28:54;2.40;;;0.80;;